Time;durP1;ratioP1;P1;durP2;ratioP2;P2;SDS_P1;SDS_P2;PMS_P1;PMS_P2;Temp;Humidity;BMP_temperature;BMP_pressure;BME280_temperature;BME280_humidity;BME280_pressure;Samples;Min_cycle;Max_cycle;Signal;HPM_P1;HPM_P2
2022/08/31 00:05:49;;;;;;;4.23;3.83;;;23.30;57.90;;;;;;5064048;28;20503;-69
2022/08/31 00:08:15;;;;;;;3.03;2.73;;;23.30;57.90;;;;;;5069058;27;20972;-69
2022/08/31 00:10:44;;;;;;;5.73;3.50;;;23.30;58.00;;;;;;5068431;28;20221;-70
2022/08/31 00:13:11;;;;;;;3.47;3.23;;;23.30;57.90;;;;;;5067296;28;20283;-70
2022/08/31 00:15:36;;;;;;;4.90;3.47;;;23.30;57.90;;;;;;5068647;28;20468;-68
2022/08/31 00:18:03;;;;;;;3.70;3.40;;;23.30;57.90;;;;;;5050036;28;20589;-69
2022/08/31 00:20:29;;;;;;;3.80;3.50;;;23.30;57.80;;;;;;5065237;28;20207;-69
2022/08/31 00:22:54;;;;;;;4.10;2.90;;;23.30;57.90;;;;;;5042555;28;20985;-70
2022/08/31 00:25:20;;;;;;;6.03;3.43;;;23.20;57.80;;;;;;5065692;28;20217;-70
2022/08/31 00:27:46;;;;;;;4.70;3.63;;;23.20;57.90;;;;;;5065154;27;20283;-69
2022/08/31 00:30:12;;;;;;;5.57;4.23;;;23.20;58.00;;;;;;5066456;28;20215;-69
2022/08/31 00:32:38;;;;;;;4.03;3.63;;;23.20;58.10;;;;;;5068111;28;20207;-71
2022/08/31 00:35:05;;;;;;;5.07;3.53;;;23.20;58.20;;;;;;5067212;28;20837;-69
2022/08/31 00:37:32;;;;;;;4.00;3.60;;;23.10;58.10;;;;;;5063831;28;20215;-69
2022/08/31 00:39:58;;;;;;;3.40;3.10;;;23.10;58.50;;;;;;5045691;28;20596;-69
2022/08/31 00:42:24;;;;;;;4.10;3.77;;;23.10;58.40;;;;;;5047679;28;20477;-68
2022/08/31 00:44:49;;;;;;;7.53;6.10;;;23.10;58.40;;;;;;5064070;28;20230;-69
2022/08/31 00:47:15;;;;;;;3.73;3.40;;;23.00;58.40;;;;;;5067985;28;20241;-69
2022/08/31 00:49:45;;;;;;;3.13;2.83;;;23.00;58.40;;;;;;5067325;28;20302;-69
2022/08/31 00:52:21;;;;;;;4.47;4.07;;;23.00;58.50;;;;;;5067578;28;20302;-70
2022/08/31 00:54:53;;;;;;;4.80;3.50;;;23.00;58.50;;;;;;5060983;27;20967;-69
2022/08/31 00:57:20;;;;;;;3.87;3.43;;;23.00;58.40;;;;;;5068230;28;20459;-69
2022/08/31 00:59:47;;;;;;;4.03;3.03;;;23.00;58.50;;;;;;5068681;28;20518;-70
2022/08/31 01:02:13;;;;;;;3.53;3.20;;;23.00;58.50;;;;;;5063307;28;20472;-69
2022/08/31 01:04:39;;;;;;;5.53;3.30;;;22.90;58.60;;;;;;5063974;28;20545;-70
2022/08/31 01:07:07;;;;;;;3.80;3.40;;;22.90;58.60;;;;;;5085761;28;20906;-69
2022/08/31 01:09:37;;;;;;;3.77;3.00;;;22.90;58.60;;;;;;5063093;28;20218;-69
2022/08/31 01:12:06;;;;;;;3.53;3.23;;;22.90;58.50;;;;;;5062494;28;20518;-69
2022/08/31 01:14:33;;;;;;;3.77;3.40;;;22.90;58.60;;;;;;5070892;28;20463;-70
2022/08/31 01:17:00;;;;;;;3.57;3.27;;;22.90;58.60;;;;;;5058932;28;20490;-70
2022/08/31 01:19:32;;;;;;;4.97;3.10;;;22.90;59.10;;;;;;5066690;28;20468;-70
2022/08/31 01:22:18;;;;;;;5.60;3.67;;;22.90;58.70;;;;;;5060664;28;21233;-70
2022/08/31 01:24:46;;;;;;;5.10;3.50;;;22.90;58.60;;;;;;5064149;28;20465;-70
2022/08/31 01:27:15;;;;;;;4.10;3.53;;;22.90;58.60;;;;;;5068478;28;20464;-69
2022/08/31 01:29:40;;;;;;;4.20;3.80;;;22.80;58.60;;;;;;5060805;28;20479;-70
2022/08/31 01:32:07;;;;;;;3.93;3.63;;;22.80;58.70;;;;;;5066556;28;20453;-69
2022/08/31 01:34:33;;;;;;;5.30;3.80;;;22.80;58.70;;;;;;5065894;28;20294;-70
2022/08/31 01:37:00;;;;;;;3.50;3.20;;;22.80;58.60;;;;;;5063470;28;20462;-67
2022/08/31 01:39:26;;;;;;;4.00;3.60;;;22.80;58.60;;;;;;5067676;28;20969;-69
2022/08/31 01:41:52;;;;;;;3.70;3.40;;;22.80;58.60;;;;;;5068792;28;20461;-70
2022/08/31 01:44:21;;;;;;;3.67;3.37;;;22.80;58.60;;;;;;5074768;27;20224;-70
2022/08/31 01:46:49;;;;;;;3.80;3.50;;;22.70;58.60;;;;;;5063992;28;20544;-70
2022/08/31 01:49:16;;;;;;;3.83;3.23;;;22.70;58.70;;;;;;5066532;28;20462;-70
2022/08/31 01:51:44;;;;;;;3.70;3.40;;;22.70;58.90;;;;;;5068323;28;20474;-69
2022/08/31 01:54:10;;;;;;;5.00;3.40;;;22.70;58.80;;;;;;5066088;28;20490;-68
2022/08/31 01:56:44;;;;;;;3.23;2.80;;;22.70;59.00;;;;;;5080260;27;20480;-70
2022/08/31 01:59:17;;;;;;;6.60;3.37;;;22.70;58.90;;;;;;5042280;28;20449;-69
2022/08/31 02:01:52;;;;;;;5.23;3.77;;;22.70;58.90;;;;;;5060995;28;20457;-70
2022/08/31 02:04:20;;;;;;;4.30;3.70;;;22.60;59.10;;;;;;5056816;28;20460;-68
2022/08/31 02:06:50;;;;;;;3.90;3.60;;;22.60;59.20;;;;;;5045141;27;20465;-69
2022/08/31 02:09:17;;;;;;;3.37;3.10;;;22.60;59.00;;;;;;5062308;28;20465;-69
2022/08/31 02:11:43;;;;;;;4.00;3.70;;;22.60;58.90;;;;;;5063404;28;20457;-70
2022/08/31 02:14:09;;;;;;;3.57;3.27;;;22.60;59.20;;;;;;5046520;28;20466;-70
2022/08/31 02:16:36;;;;;;;4.17;3.30;;;22.60;59.30;;;;;;5065938;28;20214;-70
2022/08/31 02:19:03;;;;;;;7.33;4.20;;;22.60;59.20;;;;;;5061700;28;20493;-70
2022/08/31 02:21:31;;;;;;;3.50;3.20;;;22.60;59.00;;;;;;5067777;28;20472;-68
2022/08/31 02:23:57;;;;;;;4.00;3.70;;;22.60;59.20;;;;;;5060199;28;20573;-70
2022/08/31 02:26:24;;;;;;;3.90;3.60;;;22.50;59.30;;;;;;5068112;28;20457;-69
2022/08/31 02:28:53;;;;;;;6.83;3.50;;;22.50;59.40;;;;;;5061330;28;20514;-70
2022/08/31 02:31:20;;;;;;;6.43;4.20;;;22.50;59.30;;;;;;5059890;28;20557;-69
2022/08/31 02:33:52;;;;;;;4.00;3.50;;;22.50;59.30;;;;;;5047408;27;20972;-68
2022/08/31 02:36:20;;;;;;;4.23;3.50;;;22.50;59.40;;;;;;5066749;28;20463;-68
2022/08/31 02:38:46;;;;;;;4.43;3.60;;;22.50;59.50;;;;;;5076898;27;20453;-68
2022/08/31 02:41:12;;;;;;;3.60;3.30;;;22.40;59.50;;;;;;5071011;28;20227;-69
2022/08/31 02:43:40;;;;;;;3.57;3.27;;;22.40;59.50;;;;;;5043611;28;20243;-68
2022/08/31 02:46:06;;;;;;;5.03;3.90;;;22.40;59.50;;;;;;5068563;28;20488;-69
2022/08/31 02:48:38;;;;;;;3.83;3.53;;;22.40;59.90;;;;;;5066073;28;20214;-70
2022/08/31 02:51:07;;;;;;;4.33;3.93;;;22.30;60.00;;;;;;5068200;28;20816;-69
2022/08/31 02:53:34;;;;;;;3.90;3.60;;;22.30;60.10;;;;;;5040757;28;20211;-69
2022/08/31 02:56:00;;;;;;;4.07;3.50;;;22.30;60.10;;;;;;5062929;28;20453;-69
2022/08/31 02:58:25;;;;;;;3.70;3.40;;;22.30;59.80;;;;;;5060157;28;20479;-69
2022/08/31 03:00:52;;;;;;;5.80;3.63;;;22.20;60.20;;;;;;5044021;28;20226;-69
2022/08/31 03:03:18;;;;;;;3.93;3.47;;;22.20;59.90;;;;;;5064136;28;20215;-70
2022/08/31 03:05:44;;;;;;;4.40;3.90;;;22.20;61.30;;;;;;5064819;28;20518;-68
2022/08/31 03:08:10;;;;;;;4.00;3.70;;;22.20;60.60;;;;;;5069805;28;20450;-69
2022/08/31 03:10:36;;;;;;;3.70;3.40;;;22.10;60.80;;;;;;5063291;28;20222;-69
2022/08/31 03:13:02;;;;;;;4.80;3.23;;;22.10;60.90;;;;;;5035838;28;20445;-70
2022/08/31 03:15:28;;;;;;;4.00;3.60;;;22.10;60.90;;;;;;5058591;28;20211;-69
2022/08/31 03:17:54;;;;;;;4.37;3.97;;;22.10;61.10;;;;;;5058733;28;20503;-70
2022/08/31 03:20:24;;;;;;;4.67;3.50;;;22.10;61.50;;;;;;5062868;28;20496;-70
2022/08/31 03:22:52;;;;;;;4.07;3.77;;;22.00;61.40;;;;;;5058927;28;20479;-68
2022/08/31 03:25:18;;;;;;;5.37;3.47;;;22.00;61.60;;;;;;5061218;28;20563;-70
2022/08/31 03:27:45;;;;;;;5.63;4.50;;;21.90;62.20;;;;;;5059572;28;20537;-69
2022/08/31 03:30:15;;;;;;;6.47;4.10;;;21.90;62.20;;;;;;5061322;28;20215;-69
2022/08/31 03:32:47;;;;;;;5.77;3.80;;;21.90;63.20;;;;;;5064045;28;20452;-70
2022/08/31 03:35:14;;;;;;;4.17;3.77;;;21.80;62.50;;;;;;5064072;28;20979;-70
2022/08/31 03:37:40;;;;;;;3.57;3.27;;;21.80;62.70;;;;;;5059142;27;20545;-68
2022/08/31 03:40:07;;;;;;;4.10;3.80;;;21.80;62.60;;;;;;5061724;28;20438;-70
2022/08/31 03:42:34;;;;;;;4.03;3.73;;;21.80;62.50;;;;;;5065719;28;20457;-68
2022/08/31 03:45:00;;;;;;;3.83;3.53;;;21.80;62.60;;;;;;5062961;28;20540;-69
2022/08/31 03:47:29;;;;;;;4.50;4.10;;;21.80;62.70;;;;;;5079135;27;20461;-70
2022/08/31 03:49:55;;;;;;;3.93;3.57;;;21.70;62.80;;;;;;5060798;28;20989;-68
2022/08/31 03:52:24;;;;;;;4.77;3.80;;;21.80;62.50;;;;;;5067573;28;20466;-70
2022/08/31 03:54:59;;;;;;;5.60;3.23;;;21.70;62.70;;;;;;5060884;28;20548;-69
2022/08/31 03:57:25;;;;;;;4.83;4.23;;;21.70;62.70;;;;;;5080794;28;20904;-69
2022/08/31 03:59:59;;;;;;;5.03;4.53;;;21.70;63.10;;;;;;5065592;28;20219;-70
2022/08/31 04:02:40;;;;;;;4.00;3.70;;;21.60;63.10;;;;;;5063791;27;20468;-70
2022/08/31 04:05:29;;;;;;;5.00;4.03;;;21.70;63.60;;;;;;5071083;28;20564;-69
2022/08/31 04:08:16;;;;;;;3.97;3.67;;;21.60;63.40;;;;;;5059777;28;20572;-70
2022/08/31 04:10:48;;;;;;;5.30;3.87;;;21.60;63.90;;;;;;5056412;28;20457;-69
2022/08/31 04:13:20;;;;;;;6.40;3.73;;;21.60;64.40;;;;;;5069953;28;20453;-70
2022/08/31 04:16:11;;;;;;;6.40;5.00;;;21.50;64.70;;;;;;5059379;27;20464;-68
2022/08/31 04:18:49;;;;;;;4.30;3.60;;;21.50;65.20;;;;;;5062764;28;20996;-68
2022/08/31 04:21:24;;;;;;;3.47;3.17;;;21.50;65.30;;;;;;5072963;28;20465;-68
2022/08/31 04:23:52;;;;;;;3.80;3.50;;;21.40;65.50;;;;;;5067624;28;21007;-69
2022/08/31 04:26:29;;;;;;;3.80;3.40;;;21.40;65.70;;;;;;5067361;28;20461;-69
2022/08/31 04:28:56;;;;;;;3.70;3.40;;;21.40;65.90;;;;;;5050085;28;20457;-69
2022/08/31 04:31:23;;;;;;;5.17;3.43;;;21.40;66.20;;;;;;5064943;28;20449;-69
2022/08/31 04:33:50;;;;;;;4.37;4.00;;;21.30;66.40;;;;;;5063104;28;20459;-69
2022/08/31 04:36:19;;;;;;;8.10;4.50;;;21.30;66.60;;;;;;5063018;28;20496;-68
2022/08/31 04:38:48;;;;;;;5.07;4.63;;;21.30;66.80;;;;;;5067062;28;20463;-69
2022/08/31 04:41:17;;;;;;;3.57;3.13;;;21.20;67.10;;;;;;5071179;28;20524;-69
2022/08/31 04:43:48;;;;;;;4.30;4.00;;;21.20;67.60;;;;;;5065460;28;20466;-70
2022/08/31 04:46:14;;;;;;;5.83;3.87;;;21.20;67.30;;;;;;5071250;28;20876;-69
2022/08/31 04:48:40;;;;;;;4.60;4.00;;;21.20;67.90;;;;;;5049350;28;21005;-70
2022/08/31 04:51:14;;;;;;;4.63;3.90;;;21.10;68.10;;;;;;5068570;28;20515;-69
2022/08/31 04:53:41;;;;;;;5.37;4.97;;;21.20;68.00;;;;;;5061132;28;20515;-69
2022/08/31 04:56:13;;;;;;;4.40;4.00;;;21.20;68.00;;;;;;5078303;27;20466;-69
2022/08/31 04:58:40;;;;;;;7.17;3.93;;;21.20;68.10;;;;;;5072827;27;20448;-70
2022/08/31 05:01:11;;;;;;;4.73;4.07;;;21.20;67.50;;;;;;5071319;28;20860;-69
2022/08/31 05:04:01;;;;;;;5.10;3.83;;;21.20;67.80;;;;;;5041104;28;20949;-70
2022/08/31 05:06:30;;;;;;;4.50;4.10;;;21.30;67.70;;;;;;5063076;28;20467;-70
2022/08/31 05:09:05;;;;;;;4.00;3.70;;;21.30;67.60;;;;;;5067395;27;21035;-68
2022/08/31 05:11:31;;;;;;;4.33;3.83;;;21.20;68.00;;;;;;5047687;28;20491;-69
2022/08/31 05:13:58;;;;;;;5.37;4.87;;;21.30;67.90;;;;;;5046273;28;20453;-69
2022/08/31 05:16:25;;;;;;;4.30;3.90;;;21.20;67.70;;;;;;5066390;28;20480;-68
2022/08/31 05:18:51;;;;;;;9.30;4.60;;;21.20;68.40;;;;;;5065652;28;20964;-69
2022/08/31 05:21:27;;;;;;;5.27;4.63;;;21.20;68.80;;;;;;5067613;28;20460;-69
2022/08/31 05:23:57;;;;;;;4.40;4.00;;;21.20;68.50;;;;;;5045220;28;20480;-68
2022/08/31 05:26:29;;;;;;;4.50;4.10;;;21.10;69.60;;;;;;5043265;28;20458;-69
2022/08/31 05:28:55;;;;;;;4.70;4.30;;;21.10;69.60;;;;;;5039949;28;20486;-69
2022/08/31 05:31:22;;;;;;;4.90;4.23;;;21.00;69.90;;;;;;5042648;28;21002;-69
2022/08/31 05:33:49;;;;;;;5.60;3.70;;;21.00;70.00;;;;;;5059945;28;20787;-70
2022/08/31 05:36:16;;;;;;;4.67;4.30;;;21.00;70.10;;;;;;5065998;28;20466;-69
2022/08/31 05:38:42;;;;;;;5.17;4.43;;;21.10;70.50;;;;;;5065580;28;20453;-70
2022/08/31 05:41:10;;;;;;;5.43;4.57;;;21.00;70.70;;;;;;5073929;28;20219;-70
2022/08/31 05:43:38;;;;;;;4.27;3.87;;;20.90;71.00;;;;;;5063601;28;21019;-68
2022/08/31 05:46:10;;;;;;;4.70;4.20;;;20.90;71.30;;;;;;5062120;28;20486;-69
2022/08/31 05:48:37;;;;;;;5.17;4.57;;;20.90;71.60;;;;;;5065209;28;20552;-69
2022/08/31 05:51:06;;;;;;;5.03;4.40;;;20.90;72.50;;;;;;5043043;28;20965;-69
2022/08/31 05:53:33;;;;;;;5.00;4.50;;;20.90;72.10;;;;;;5060899;28;20453;-70
2022/08/31 05:56:03;;;;;;;4.73;4.30;;;20.90;72.30;;;;;;5056066;28;20530;-70
2022/08/31 05:58:30;;;;;;;4.63;4.23;;;20.90;72.60;;;;;;5062202;28;20462;-69
2022/08/31 06:00:56;;;;;;;5.50;5.00;;;20.90;72.70;;;;;;5056688;28;20888;-70
2022/08/31 06:03:42;;;;;;;5.50;4.57;;;20.90;73.10;;;;;;5058620;28;20469;-70
2022/08/31 06:06:08;;;;;;;7.33;4.07;;;20.90;73.30;;;;;;5058688;28;20450;-70
2022/08/31 06:08:35;;;;;;;5.30;4.40;;;20.90;73.30;;;;;;5066080;28;20983;-69
2022/08/31 06:11:02;;;;;;;5.63;5.10;;;20.90;73.40;;;;;;5047546;28;20449;-70
2022/08/31 06:13:28;;;;;;;4.40;4.10;;;20.90;73.10;;;;;;5062022;28;20453;-69
2022/08/31 06:15:58;;;;;;;5.53;4.63;;;20.90;73.00;;;;;;5063227;28;20453;-69
2022/08/31 06:18:24;;;;;;;5.27;4.77;;;20.90;73.20;;;;;;5066148;28;20464;-69
2022/08/31 06:20:59;;;;;;;5.40;4.33;;;20.90;73.20;;;;;;5070870;28;20544;-70
2022/08/31 06:23:25;;;;;;;6.70;4.77;;;20.90;73.30;;;;;;5063537;28;20516;-69
2022/08/31 06:25:50;;;;;;;4.73;4.30;;;20.90;73.00;;;;;;5046647;28;20490;-70
2022/08/31 06:28:16;;;;;;;4.50;4.10;;;21.00;72.90;;;;;;5057758;28;20241;-70
2022/08/31 06:30:42;;;;;;;4.03;3.73;;;21.00;73.40;;;;;;5063236;28;20720;-70
2022/08/31 06:33:08;;;;;;;4.70;4.30;;;21.00;73.10;;;;;;5059577;28;20211;-69
2022/08/31 06:36:00;;;;;;;5.30;4.80;;;21.00;73.30;;;;;;5059066;28;20710;-69
2022/08/31 06:38:42;;;;;;;4.97;4.57;;;21.00;73.90;;;;;;5042321;28;20465;-70
2022/08/31 06:41:34;;;;;;;4.40;4.10;;;21.00;74.30;;;;;;5057883;28;20449;-69
2022/08/31 06:44:21;;;;;;;5.30;4.90;;;21.00;74.50;;;;;;5047495;28;21017;-70
2022/08/31 06:47:07;;;;;;;6.57;4.57;;;20.90;75.30;;;;;;5057585;28;21091;-70
2022/08/31 06:49:36;;;;;;;5.83;4.17;;;20.90;75.70;;;;;;5064792;28;20446;-69
2022/08/31 06:52:02;;;;;;;5.00;4.47;;;20.90;76.30;;;;;;5062758;28;20475;-68
2022/08/31 06:54:30;;;;;;;4.83;4.43;;;20.90;75.80;;;;;;5063559;28;20215;-69
2022/08/31 06:57:19;;;;;;;4.70;4.30;;;20.90;76.40;;;;;;5046598;28;20458;-69
2022/08/31 07:00:05;;;;;;;4.60;4.20;;;20.90;76.10;;;;;;5052891;28;20457;-69
2022/08/31 07:02:43;;;;;;;5.03;4.00;;;20.90;75.70;;;;;;5058744;28;20449;-68
2022/08/31 07:05:08;;;;;;;4.93;4.50;;;20.90;76.00;;;;;;5041077;28;20607;-69
2022/08/31 07:07:36;;;;;;;4.97;4.30;;;20.90;76.60;;;;;;5060032;28;20215;-69
2022/08/31 07:10:02;;;;;;;5.27;4.77;;;20.90;76.60;;;;;;5046268;28;20801;-68
2022/08/31 07:12:29;;;;;;;5.80;4.90;;;20.90;77.70;;;;;;5062450;28;20302;-69
2022/08/31 07:14:55;;;;;;;5.03;4.63;;;20.90;78.00;;;;;;5062290;28;20510;-70
2022/08/31 07:17:21;;;;;;;6.70;5.60;;;20.90;79.20;;;;;;5062148;28;20470;-69
2022/08/31 07:19:47;;;;;;;5.67;5.17;;;20.90;79.00;;;;;;5060530;28;20957;-68
2022/08/31 07:22:14;;;;;;;5.33;4.90;;;20.90;79.30;;;;;;5045401;28;20246;-69
2022/08/31 07:24:41;;;;;;;5.63;5.07;;;20.80;81.70;;;;;;5054218;28;20525;-69
2022/08/31 07:27:11;;;;;;;6.30;5.70;;;20.70;83.20;;;;;;5060568;28;20484;-68
2022/08/31 07:29:43;;;;;;;5.03;4.60;;;20.80;82.50;;;;;;5062261;28;20643;-68
2022/08/31 07:32:13;;;;;;;5.30;4.80;;;20.90;81.90;;;;;;5047341;28;20469;-68
2022/08/31 07:34:42;;;;;;;7.57;5.20;;;20.80;83.30;;;;;;5042039;28;20465;-69
2022/08/31 07:43:11;;;;;;;4.80;4.40;;;20.90;84.20;;;;;;5064228;28;20457;-67
2022/08/31 07:45:39;;;;;;;6.83;5.47;;;20.90;84.70;;;;;;5060196;28;21035;-67
2022/08/31 07:48:05;;;;;;;5.90;5.10;;;20.90;84.40;;;;;;5060260;28;20476;-69
2022/08/31 07:50:57;;;;;;;5.20;4.70;;;20.90;85.40;;;;;;5060408;28;20973;-68
2022/08/31 07:53:46;;;;;;;4.80;4.40;;;20.90;85.00;;;;;;5065787;28;20455;-68
2022/08/31 07:56:41;;;;;;;6.13;5.37;;;20.90;86.30;;;;;;5068964;28;20450;-69
2022/08/31 07:59:13;;;;;;;7.47;5.33;;;20.90;86.90;;;;;;5048535;28;20452;-68
2022/08/31 08:01:42;;;;;;;6.00;5.43;;;20.90;86.40;;;;;;5061608;28;20449;-70
2022/08/31 08:04:17;;;;;;;6.90;5.20;;;20.90;86.20;;;;;;5070967;28;20482;-68
2022/08/31 08:06:59;;;;;;;5.30;4.80;;;20.90;86.80;;;;;;5052278;28;20964;-68
2022/08/31 08:09:43;;;;;;;6.70;5.87;;;20.90;87.00;;;;;;5055643;28;20468;-68
2022/08/31 08:12:35;;;;;;;5.77;5.27;;;20.90;89.00;;;;;;5063298;28;20454;-68
2022/08/31 08:15:08;;;;;;;6.70;5.30;;;20.90;90.10;;;;;;5062854;28;20486;-68
2022/08/31 08:17:47;;;;;;;6.20;5.60;;;20.90;89.90;;;;;;5061243;28;20560;-68
2022/08/31 08:20:19;;;;;;;9.27;4.93;;;20.90;90.00;;;;;;5063309;28;21027;-68
2022/08/31 08:22:46;;;;;;;5.87;5.37;;;20.90;90.30;;;;;;5065691;28;20465;-68
2022/08/31 08:25:35;;;;;;;7.57;5.43;;;20.90;90.20;;;;;;5079996;28;20469;-68
2022/08/31 08:28:28;;;;;;;6.07;5.47;;;20.90;90.60;;;;;;5065595;28;20488;-68
2022/08/31 08:30:59;;;;;;;8.20;5.80;;;20.90;90.50;;;;;;5063467;28;21022;-67
2022/08/31 08:33:27;;;;;;;6.20;5.70;;;20.90;90.30;;;;;;5067064;28;20499;-68
2022/08/31 08:35:59;;;;;;;10.27;6.20;;;20.90;90.60;;;;;;5065720;28;20458;-68
2022/08/31 08:38:29;;;;;;;8.80;6.50;;;20.80;90.30;;;;;;5066902;28;20510;-67
2022/08/31 08:41:00;;;;;;;6.40;5.80;;;20.80;90.90;;;;;;5057317;28;20465;-68
2022/08/31 08:43:32;;;;;;;6.10;5.50;;;20.80;90.70;;;;;;5062701;28;20477;-68
2022/08/31 08:46:01;;;;;;;5.53;5.07;;;20.80;90.70;;;;;;5059901;28;20465;-67
2022/08/31 08:48:32;;;;;;;7.47;5.40;;;20.80;90.70;;;;;;5061883;28;20450;-68
2022/08/31 08:51:03;;;;;;;6.47;5.77;;;20.90;90.70;;;;;;5064966;28;20453;-67
2022/08/31 08:53:42;;;;;;;6.30;5.77;;;20.80;91.00;;;;;;5050967;28;20459;-68
2022/08/31 08:56:21;;;;;;;6.40;4.90;;;20.80;91.70;;;;;;5039615;28;20450;-68
2022/08/31 08:58:47;;;;;;;6.63;5.87;;;20.80;91.40;;;;;;5038794;28;20453;-68
2022/08/31 09:01:23;;;;;;;8.67;6.47;;;20.80;91.40;;;;;;5063759;28;20452;-68
2022/08/31 09:04:07;;;;;;;6.23;5.73;;;20.80;91.90;;;;;;5062106;28;20497;-68
2022/08/31 09:07:21;;;;;;;9.73;6.00;;;20.80;91.40;;;;;;5071923;28;20461;-68
2022/08/31 09:10:07;;;;;;;6.93;5.60;;;20.80;91.90;;;;;;5076098;28;20958;-66
2022/08/31 09:12:37;;;;;;;6.43;5.83;;;20.80;92.70;;;;;;5062734;28;20457;-68
2022/08/31 09:15:20;;;;;;;6.50;5.90;;;20.70;92.80;;;;;;5044436;28;20557;-68
2022/08/31 09:18:14;;;;;;;6.00;5.47;;;20.80;92.70;;;;;;5061576;28;20460;-68
2022/08/31 09:20:41;;;;;;;6.53;5.87;;;20.80;92.80;;;;;;5046791;28;20458;-68
2022/08/31 09:23:07;;;;;;;6.33;5.73;;;20.80;93.40;;;;;;5061577;28;20485;-68
2022/08/31 09:25:52;;;;;;;6.60;5.57;;;20.80;92.70;;;;;;5067265;28;20236;-68
2022/08/31 09:28:47;;;;;;;6.40;5.80;;;20.80;93.00;;;;;;5049878;28;20507;-67
2022/08/31 09:31:35;;;;;;;6.40;5.80;;;20.80;93.60;;;;;;5064128;28;20457;-67
2022/08/31 09:34:03;;;;;;;6.17;5.57;;;20.80;93.70;;;;;;5074980;28;20457;-68
2022/08/31 09:36:39;;;;;;;9.60;6.07;;;20.80;93.70;;;;;;5066344;28;20469;-68
2022/08/31 09:39:23;;;;;;;9.30;6.13;;;20.80;93.50;;;;;;5075170;28;20524;-68
2022/08/31 09:41:51;;;;;;;7.30;6.60;;;20.80;93.40;;;;;;5075346;28;20457;-68
2022/08/31 09:44:34;;;;;;;6.30;5.70;;;20.80;93.50;;;;;;5060122;28;20486;-67
2022/08/31 09:47:05;;;;;;;8.43;5.90;;;20.80;93.30;;;;;;5061765;28;20473;-69
2022/08/31 09:49:37;;;;;;;7.20;6.20;;;20.80;93.30;;;;;;5060994;28;20466;-69
2022/08/31 09:52:20;;;;;;;7.23;5.33;;;20.80;93.70;;;;;;5058052;28;20443;-68
2022/08/31 09:55:13;;;;;;;6.20;5.60;;;20.80;93.10;;;;;;5062358;28;20460;-67
2022/08/31 09:58:01;;;;;;;6.20;5.47;;;20.80;93.20;;;;;;5043317;28;20982;-67
2022/08/31 10:00:43;;;;;;;13.47;6.73;;;20.80;93.20;;;;;;5046004;28;20947;-66
2022/08/31 10:03:27;;;;;;;8.47;7.17;;;20.90;93.60;;;;;;5062666;28;20829;-68
2022/08/31 10:05:54;;;;;;;7.00;6.27;;;20.90;95.10;;;;;;5050925;28;20472;-68
2022/08/31 10:08:41;;;;;;;9.40;6.33;;;20.90;95.10;;;;;;5062442;28;20465;-67
2022/08/31 10:11:19;;;;;;;7.27;6.57;;;20.90;95.10;;;;;;5057668;28;20450;-69
2022/08/31 10:14:15;;;;;;;9.30;6.90;;;20.90;95.10;;;;;;5047068;28;20607;-69
2022/08/31 10:16:48;;;;;;;5.57;5.07;;;20.90;95.30;;;;;;5076508;28;20465;-70
2022/08/31 10:19:18;;;;;;;9.77;7.20;;;20.90;94.70;;;;;;5041572;28;20523;-69
2022/08/31 10:21:56;;;;;;;6.37;5.80;;;20.90;94.70;;;;;;5052496;28;20465;-68
2022/08/31 10:24:45;;;;;;;7.30;6.60;;;21.00;94.20;;;;;;5068847;28;20481;-69
2022/08/31 10:27:20;;;;;;;7.03;6.33;;;20.90;95.00;;;;;;5055984;28;20458;-69
2022/08/31 10:29:58;;;;;;;8.10;6.90;;;20.90;94.90;;;;;;5058358;28;20544;-68
2022/08/31 10:32:44;;;;;;;6.60;6.00;;;20.90;94.00;;;;;;5064901;28;20465;-69
2022/08/31 10:35:18;;;;;;;6.37;5.80;;;21.00;94.30;;;;;;5060361;28;20445;-68
2022/08/31 10:37:53;;;;;;;6.33;5.57;;;21.00;94.00;;;;;;5054223;28;20481;-68
2022/08/31 10:40:33;;;;;;;7.30;6.57;;;21.00;94.30;;;;;;5062565;28;20457;-68
2022/08/31 10:43:20;;;;;;;6.50;5.90;;;21.00;94.40;;;;;;5056869;28;20467;-69
2022/08/31 10:45:49;;;;;;;8.13;6.87;;;21.00;94.50;;;;;;5035724;28;21085;-69
2022/08/31 10:48:18;;;;;;;8.13;6.73;;;21.00;94.00;;;;;;5060293;28;20477;-68
2022/08/31 10:51:12;;;;;;;7.13;6.43;;;21.00;94.10;;;;;;5058276;28;20904;-69
2022/08/31 10:53:51;;;;;;;8.57;7.27;;;21.00;94.40;;;;;;5035857;28;20477;-67
2022/08/31 10:56:27;;;;;;;7.00;5.93;;;21.00;94.40;;;;;;5052998;28;20481;-69
2022/08/31 10:59:10;;;;;;;6.80;6.10;;;21.00;94.40;;;;;;5054802;28;20461;-68
2022/08/31 11:02:20;;;;;;;6.47;5.87;;;21.00;94.00;;;;;;5068642;28;20972;-68
2022/08/31 11:05:17;;;;;;;8.43;6.77;;;21.00;94.40;;;;;;5042553;28;20470;-69
2022/08/31 11:07:58;;;;;;;7.63;6.70;;;21.10;94.50;;;;;;5060121;28;20953;-69
2022/08/31 11:10:42;;;;;;;6.97;5.87;;;21.10;93.70;;;;;;5056233;28;20466;-68
2022/08/31 11:13:45;;;;;;;6.70;6.10;;;21.00;94.80;;;;;;5055258;28;20507;-68
2022/08/31 11:16:39;;;;;;;8.50;5.93;;;21.00;94.60;;;;;;5061505;28;20480;-68
2022/08/31 11:19:37;;;;;;;6.10;5.50;;;21.00;94.90;;;;;;5058182;28;20454;-69
2022/08/31 11:22:03;;;;;;;7.10;6.10;;;21.00;94.70;;;;;;5051673;28;20487;-69
2022/08/31 11:25:06;;;;;;;8.33;6.03;;;21.00;95.00;;;;;;5014637;28;1165777;-68
2022/08/31 11:27:49;;;;;;;7.40;6.30;;;21.00;94.50;;;;;;5056053;28;20226;-69
2022/08/31 11:30:27;;;;;;;11.60;5.87;;;21.00;95.00;;;;;;5069067;28;20476;-68
2022/08/31 11:33:08;;;;;;;6.80;6.10;;;21.00;95.30;;;;;;5047274;28;20523;-69
2022/08/31 11:35:59;;;;;;;7.90;5.93;;;21.00;95.00;;;;;;5059055;28;20470;-69
2022/08/31 11:38:55;;;;;;;9.47;6.37;;;21.00;95.30;;;;;;5073384;28;20553;-69
2022/08/31 11:41:30;;;;;;;6.60;6.00;;;21.10;95.60;;;;;;5063039;28;20457;-69
2022/08/31 11:43:56;;;;;;;7.53;6.80;;;21.10;94.80;;;;;;5056879;28;20929;-68
2022/08/31 11:46:25;;;;;;;6.73;6.03;;;21.10;95.90;;;;;;5060964;28;20815;-66
2022/08/31 11:48:52;;;;;;;11.17;6.07;;;21.00;95.00;;;;;;5065935;28;20452;-69
2022/08/31 11:51:31;;;;;;;7.17;6.50;;;21.10;95.20;;;;;;5063321;28;20500;-68
2022/08/31 11:54:03;;;;;;;6.57;6.00;;;21.10;94.80;;;;;;5051922;28;20461;-69
2022/08/31 11:56:37;;;;;;;7.10;6.20;;;21.10;95.30;;;;;;5064536;28;20994;-68
2022/08/31 11:59:30;;;;;;;6.90;6.30;;;21.10;95.10;;;;;;5055272;28;20458;-68
2022/08/31 12:02:02;;;;;;;7.23;6.57;;;21.10;95.00;;;;;;5054798;28;20461;-67
2022/08/31 12:04:40;;;;;;;6.23;5.63;;;21.10;95.10;;;;;;5059263;28;20478;-67
2022/08/31 12:07:11;;;;;;;7.07;6.33;;;21.10;95.10;;;;;;5057997;28;20453;-69
2022/08/31 12:09:44;;;;;;;6.70;6.10;;;21.20;95.40;;;;;;5062721;28;20489;-67
2022/08/31 12:12:23;;;;;;;6.80;6.20;;;21.20;95.30;;;;;;5061738;28;20464;-68
2022/08/31 12:15:07;;;;;;;5.30;4.83;;;21.30;95.90;;;;;;5054028;28;20454;-67
2022/08/31 12:18:15;;;;;;;6.10;5.50;;;21.30;95.40;;;;;;5054802;28;20461;-68
2022/08/31 12:24:08;;;;;;;6.67;6.07;;;21.40;95.50;;;;;;5054929;28;20474;-68
2022/08/31 12:27:03;;;;;;;6.07;5.43;;;21.40;95.40;;;;;;5035199;28;20470;-68
2022/08/31 12:29:30;;;;;;;5.90;5.30;;;21.40;95.60;;;;;;5080370;28;20587;-68
2022/08/31 12:32:21;;;;;;;7.30;5.90;;;21.40;95.30;;;;;;5046705;28;20453;-68
2022/08/31 12:35:06;;;;;;;5.27;4.77;;;21.40;95.10;;;;;;5068240;28;20832;-68
2022/08/31 12:37:36;;;;;;;5.50;5.07;;;21.50;95.10;;;;;;5077857;28;20492;-67
2022/08/31 12:40:06;;;;;;;7.03;6.17;;;21.50;95.40;;;;;;5077832;28;20446;-68
2022/08/31 12:42:56;;;;;;;6.57;5.33;;;21.60;95.20;;;;;;5063336;28;20457;-68
2022/08/31 12:45:53;;;;;;;5.97;4.93;;;21.60;95.10;;;;;;5062490;28;20474;-68
2022/08/31 12:48:46;;;;;;;6.50;5.90;;;21.60;95.10;;;;;;5048903;28;20523;-69
2022/08/31 12:51:40;;;;;;;7.80;5.80;;;21.60;94.80;;;;;;5054162;28;20536;-68
2022/08/31 12:54:25;;;;;;;6.17;5.60;;;21.70;94.90;;;;;;5045421;28;20460;-66
2022/08/31 12:56:51;;;;;;;6.33;5.73;;;21.70;94.80;;;;;;5070289;28;20969;-69
2022/08/31 12:59:19;;;;;;;8.73;6.07;;;21.70;95.00;;;;;;5080564;28;20458;-67
2022/08/31 13:01:48;;;;;;;6.77;5.57;;;21.80;94.90;;;;;;5064253;28;20215;-69
2022/08/31 13:04:16;;;;;;;6.10;5.60;;;21.80;95.20;;;;;;5052711;28;20493;-68
2022/08/31 13:06:43;;;;;;;8.17;5.50;;;21.90;95.10;;;;;;5065440;28;20465;-69
2022/08/31 13:09:34;;;;;;;6.20;5.60;;;21.90;95.00;;;;;;5057667;28;20474;-69
2022/08/31 13:12:01;;;;;;;8.10;6.57;;;21.90;95.10;;;;;;5065170;28;20552;-69
2022/08/31 13:14:39;;;;;;;7.33;6.10;;;21.90;94.80;;;;;;5067142;28;20484;-68
2022/08/31 13:17:10;;;;;;;7.23;6.53;;;21.90;95.50;;;;;;5064664;28;20456;-67
2022/08/31 13:19:38;;;;;;;9.30;6.77;;;22.00;95.00;;;;;;5060875;28;20465;-69
2022/08/31 13:22:15;;;;;;;8.03;6.23;;;22.00;95.10;;;;;;5047795;28;20449;-68
2022/08/31 13:24:45;;;;;;;6.57;5.90;;;22.00;95.20;;;;;;5064139;28;20501;-67
2022/08/31 13:27:24;;;;;;;8.10;7.30;;;22.00;95.10;;;;;;5063818;28;21044;-69
2022/08/31 13:29:52;;;;;;;6.70;6.00;;;22.00;95.20;;;;;;5061839;28;20458;-68
2022/08/31 13:32:32;;;;;;;8.73;7.10;;;22.00;95.00;;;;;;5064722;28;20497;-68